createdAt,value
2018-06-23T00:01:41.489Z,10.12
2018-06-23T00:04:45.994Z,10.14
2018-06-23T00:07:50.899Z,10.13
2018-06-23T00:10:55.277Z,10.23
2018-06-23T00:14:00.132Z,10.20
2018-06-23T00:17:04.514Z,10.24
2018-06-23T00:20:08.834Z,10.21
2018-06-23T00:23:13.171Z,10.05
2018-06-23T00:26:31.802Z,9.73
2018-06-23T00:29:36.198Z,9.85
2018-06-23T00:32:40.806Z,9.93
2018-06-23T00:35:45.107Z,9.96
2018-06-23T00:38:49.537Z,10.10
2018-06-23T00:41:54.044Z,10.22
2018-06-23T00:44:58.417Z,10.26
2018-06-23T00:48:02.934Z,10.31
2018-06-23T00:51:18.088Z,10.35
2018-06-23T00:54:22.567Z,10.37
2018-06-23T00:57:27.542Z,10.38
2018-06-23T01:00:31.845Z,10.43
2018-06-23T01:03:36.434Z,10.49
2018-06-23T01:06:40.763Z,10.48
2018-06-23T01:09:45.208Z,10.56
2018-06-23T01:12:49.497Z,10.47
2018-06-23T01:15:53.781Z,10.54
2018-06-23T01:18:58.116Z,10.55
2018-06-23T01:22:02.428Z,10.52
2018-06-23T01:25:06.940Z,10.55
2018-06-23T01:28:10.964Z,10.48
2018-06-23T01:31:15.644Z,10.42
2018-06-23T01:34:19.920Z,10.32
2018-06-23T01:37:24.244Z,10.41
2018-06-23T01:40:30.173Z,10.43
2018-06-23T01:43:35.053Z,10.37
2018-06-23T01:46:39.373Z,10.37
2018-06-23T01:49:43.659Z,10.42
2018-06-23T01:52:48.201Z,10.43
2018-06-23T01:55:52.496Z,10.53
2018-06-23T01:58:56.787Z,10.43
2018-06-23T02:02:01.579Z,10.53
2018-06-23T02:05:06.032Z,10.56
2018-06-23T02:08:10.300Z,10.46
2018-06-23T02:11:15.534Z,10.43
2018-06-23T02:14:25.042Z,10.43
2018-06-23T02:17:34.618Z,10.38
2018-06-23T02:21:43.101Z,10.46
2018-06-23T02:24:52.695Z,10.42
2018-06-23T02:28:02.362Z,10.39
2018-06-23T02:31:11.979Z,10.48
2018-06-23T02:34:21.639Z,10.49
2018-06-23T02:37:25.987Z,10.38
2018-06-23T02:40:30.250Z,10.38
2018-06-23T02:43:35.785Z,10.48
2018-06-23T02:46:40.113Z,10.31
2018-06-23T02:49:44.501Z,10.30
2018-06-23T02:52:48.916Z,10.21
2018-06-23T02:55:53.213Z,10.22
2018-06-23T02:58:57.591Z,10.16
2018-06-23T03:02:01.873Z,10.13
2018-06-23T03:05:07.154Z,10.12
2018-06-23T03:08:11.406Z,10.05
2018-06-23T03:11:15.727Z,10.04
2018-06-23T03:14:20.148Z,10.02
2018-06-23T03:17:24.409Z,9.91
2018-06-23T03:20:30.486Z,9.90
2018-06-23T03:23:35.332Z,9.82
2018-06-23T03:26:39.619Z,9.75
2018-06-23T03:29:43.889Z,9.75
2018-06-23T03:32:48.191Z,9.70
2018-06-23T03:35:53.136Z,9.74
2018-06-23T03:38:57.434Z,9.73
2018-06-23T03:42:01.725Z,9.66
2018-06-23T03:45:06.064Z,9.60
2018-06-23T03:48:10.160Z,9.62
2018-06-23T03:51:14.522Z,9.75
2018-06-23T03:54:18.868Z,9.85
2018-06-23T03:57:23.254Z,9.89
2018-06-23T04:00:28.132Z,10.01
2018-06-23T04:03:32.606Z,10.16
2018-06-23T04:06:37.037Z,10.25
2018-06-23T04:09:41.294Z,10.29
2018-06-23T04:12:45.678Z,10.36
2018-06-23T04:15:50.089Z,10.41
2018-06-23T04:18:57.302Z,10.69
2018-06-23T04:22:02.548Z,10.62
2018-06-23T04:25:06.995Z,10.82
2018-06-23T04:28:12.377Z,10.86
2018-06-23T04:31:16.632Z,11.14
2018-06-23T04:34:20.954Z,11.10
2018-06-23T04:37:25.290Z,11.48
2018-06-23T04:40:29.963Z,11.35
2018-06-23T04:43:34.670Z,11.62
2018-06-23T04:46:38.928Z,11.65
2018-06-23T04:49:44.226Z,11.81
2018-06-23T04:52:48.585Z,11.99
2018-06-23T04:55:53.163Z,11.87
2018-06-23T04:58:57.476Z,11.92
2018-06-23T05:02:01.827Z,11.82
2018-06-23T05:05:06.143Z,11.79
2018-06-23T05:08:10.437Z,11.96
2018-06-23T05:11:15.702Z,11.81
2018-06-23T05:14:20.711Z,11.53
2018-06-23T05:17:25.059Z,11.93
2018-06-23T05:20:29.482Z,11.58
2018-06-23T05:23:35.542Z,11.53
2018-06-23T05:26:39.958Z,11.46
2018-06-23T05:29:44.487Z,11.55
2018-06-23T05:32:48.844Z,11.59
2018-06-23T05:35:53.664Z,11.53
2018-06-23T05:38:59.119Z,11.75
2018-06-23T05:42:03.752Z,11.88
2018-06-23T05:45:08.185Z,11.83
2018-06-23T05:48:13.077Z,11.97
2018-06-23T05:51:19.082Z,11.99
2018-06-23T05:54:23.401Z,12.28
2018-06-23T05:57:27.727Z,12.31
2018-06-23T06:00:32.227Z,12.40
2018-06-23T06:03:36.735Z,12.56
2018-06-23T06:06:40.772Z,12.50
2018-06-23T06:09:45.042Z,12.90
2018-06-23T06:12:49.367Z,13.93
2018-06-23T06:15:53.669Z,14.19
2018-06-23T06:18:58.985Z,13.05
2018-06-23T06:22:03.420Z,13.17
2018-06-23T06:25:08.323Z,13.44
2018-06-23T06:28:13.561Z,14.50
2018-06-23T06:31:17.882Z,14.08
2018-06-23T06:34:23.351Z,14.16
2018-06-23T06:37:28.437Z,14.77
2018-06-23T06:40:32.762Z,15.67
2018-06-23T06:43:37.180Z,13.66
2018-06-23T06:46:41.639Z,12.98
2018-06-23T06:49:45.958Z,14.32
2018-06-23T06:52:50.408Z,13.66
2018-06-23T06:55:54.770Z,13.13
2018-06-23T06:58:59.334Z,12.73
2018-06-23T07:02:03.666Z,13.92
2018-06-23T07:05:08.011Z,13.92
2018-06-23T07:08:12.310Z,15.23
2018-06-23T07:11:16.710Z,15.69
2018-06-23T07:14:21.047Z,16.58
2018-06-23T07:17:25.344Z,17.56
2018-06-23T07:20:30.800Z,17.88
2018-06-23T07:23:36.590Z,18.77
2018-06-23T07:26:41.252Z,16.54
2018-06-23T07:29:45.683Z,15.22
2018-06-23T07:32:50.056Z,15.91
2018-06-23T07:35:54.650Z,14.34
2018-06-23T07:38:59.486Z,14.66
2018-06-23T07:42:05.252Z,14.26
2018-06-23T07:45:09.327Z,14.52
2018-06-23T07:48:13.637Z,15.40
2018-06-23T07:51:17.962Z,14.18
2018-06-23T07:54:22.314Z,13.97
2018-06-23T07:57:26.632Z,14.78
2018-06-23T08:00:31.081Z,15.00
2018-06-23T08:03:37.667Z,14.05
2018-06-23T08:06:42.171Z,14.31
2018-06-23T08:09:46.478Z,15.36
2018-06-23T08:12:51.963Z,15.41
2018-06-23T08:15:56.301Z,17.08
2018-06-23T08:19:00.626Z,16.44
2018-06-23T08:22:05.779Z,14.81
2018-06-23T08:25:10.085Z,15.18
2018-06-23T08:28:14.585Z,16.48
2018-06-23T08:31:18.921Z,16.11
2018-06-23T08:34:24.523Z,15.16
2018-06-23T08:37:30.008Z,15.23
2018-06-23T08:40:34.993Z,16.64
2018-06-23T08:43:39.505Z,17.38
2018-06-23T08:46:45.344Z,17.08
2018-06-23T08:49:50.816Z,15.99
2018-06-23T08:52:55.292Z,15.63
2018-06-23T08:55:59.736Z,15.48
2018-06-23T08:59:04.090Z,15.30
2018-06-23T09:02:09.775Z,15.53
2018-06-23T09:05:14.161Z,15.69
2018-06-23T09:08:18.528Z,15.84
2018-06-23T09:11:23.294Z,15.11
2018-06-23T09:14:27.722Z,15.46
2018-06-23T09:17:32.094Z,15.92
2018-06-23T09:20:36.577Z,16.15
2018-06-23T09:23:40.965Z,15.83
2018-06-23T09:26:45.318Z,15.80
2018-06-23T09:29:49.646Z,15.40
2018-06-23T09:32:54.330Z,16.28
2018-06-23T09:35:58.710Z,16.20
2018-06-23T09:39:03.329Z,17.21
2018-06-23T09:42:07.845Z,17.28
2018-06-23T09:45:12.196Z,17.32
2018-06-23T09:48:16.932Z,17.12
2018-06-23T09:51:21.611Z,16.71
2018-06-23T09:54:26.393Z,16.64
2018-06-23T09:57:30.898Z,16.46
2018-06-23T10:00:35.324Z,16.96
2018-06-23T10:03:39.751Z,17.77
2018-06-23T10:06:45.130Z,17.43
2018-06-23T10:09:49.561Z,16.48
2018-06-23T10:12:54.144Z,16.29
2018-06-23T10:15:59.395Z,17.04
2018-06-23T10:19:03.817Z,17.71
2018-06-23T10:22:08.314Z,16.17
2018-06-23T10:25:12.727Z,15.87
2018-06-23T10:28:17.286Z,16.24
2018-06-23T10:31:21.906Z,16.84
2018-06-23T10:34:26.409Z,17.01
2018-06-23T10:37:30.856Z,16.32
2018-06-23T10:40:35.786Z,17.00
2018-06-23T10:43:40.596Z,16.63
2018-06-23T10:46:46.957Z,17.00
2018-06-23T10:49:51.506Z,17.59
2018-06-23T10:52:55.972Z,17.81
2018-06-23T10:56:00.414Z,16.61
2018-06-23T10:59:04.977Z,17.03
2018-06-23T11:02:09.364Z,17.10
2018-06-23T11:05:13.885Z,17.10
2018-06-23T11:08:18.580Z,17.45
2018-06-23T11:11:23.013Z,17.75
2018-06-23T11:14:27.512Z,17.14
2018-06-23T11:17:32.176Z,17.53
2018-06-23T11:20:36.509Z,17.49
2018-06-23T11:23:40.870Z,16.78
2018-06-23T11:26:45.307Z,16.38
2018-06-23T11:29:49.760Z,17.27
2018-06-23T11:32:54.260Z,18.00
2018-06-23T11:35:58.627Z,17.57
2018-06-23T11:39:02.937Z,17.11
2018-06-23T11:42:07.314Z,17.10
2018-06-23T11:45:11.681Z,16.89
2018-06-23T11:48:16.107Z,16.45
2018-06-23T11:51:20.433Z,16.37
2018-06-23T11:54:24.862Z,16.48
2018-06-23T11:57:29.172Z,17.11
2018-06-23T12:00:33.488Z,16.94
2018-06-23T12:03:37.764Z,17.45
2018-06-23T12:06:43.352Z,17.23
2018-06-23T12:09:47.830Z,16.78
2018-06-23T12:12:52.337Z,16.79
2018-06-23T12:15:56.701Z,17.12
2018-06-23T12:19:01.021Z,17.68
2018-06-23T12:22:05.497Z,17.83
2018-06-23T12:25:10.003Z,17.34
2018-06-23T12:28:14.421Z,17.15
2018-06-23T12:31:18.734Z,17.51
2018-06-23T12:34:22.912Z,18.05
2018-06-23T12:37:28.588Z,17.88
2018-06-23T12:43:44.246Z,18.41
2018-06-23T12:46:48.608Z,18.54
2018-06-23T12:49:53.172Z,18.44
2018-06-23T12:52:57.863Z,17.19
2018-06-23T12:56:02.302Z,17.24
2018-06-23T12:59:06.597Z,17.82
2018-06-23T13:02:11.446Z,18.68
2018-06-23T13:05:15.780Z,17.75
2018-06-23T13:08:20.184Z,17.91
2018-06-23T13:11:25.523Z,18.23
2018-06-23T13:14:30.853Z,18.83
2018-06-23T13:17:35.860Z,18.42
2018-06-23T13:20:41.205Z,19.04
2018-06-23T13:23:45.513Z,18.73
2018-06-23T13:26:50.465Z,18.98
2018-06-23T13:29:54.784Z,17.78
2018-06-23T13:32:59.646Z,17.61
2018-06-23T13:36:03.963Z,17.89
2018-06-23T13:39:10.063Z,18.28
2018-06-23T13:42:14.453Z,18.34
2018-06-23T13:45:18.748Z,18.23
2018-06-23T13:48:23.341Z,17.91
2018-06-23T13:51:27.721Z,17.78
2018-06-23T13:54:32.439Z,17.94
2018-06-23T13:57:36.655Z,18.35
2018-06-23T14:00:41.102Z,18.15
2018-06-23T14:03:45.634Z,18.17
2018-06-23T14:06:50.492Z,17.91
2018-06-23T14:09:54.814Z,18.16
2018-06-23T14:12:59.413Z,18.55
2018-06-23T14:16:04.828Z,19.19
2018-06-23T14:19:09.346Z,17.93
2018-06-23T14:22:13.912Z,18.00
2018-06-23T14:25:18.292Z,17.99
2018-06-23T14:28:22.751Z,17.61
2018-06-23T14:31:27.150Z,17.38
2018-06-23T14:34:31.545Z,17.11
2018-06-23T14:37:36.681Z,16.91
2018-06-23T14:40:41.561Z,16.93
2018-06-23T14:43:46.047Z,16.82
2018-06-23T14:46:50.700Z,16.82
2018-06-23T14:49:55.480Z,17.17
2018-06-23T14:53:00.205Z,16.95
2018-06-23T14:56:04.642Z,16.72
2018-06-23T14:59:09.205Z,16.79
2018-06-23T15:02:13.616Z,16.64
2018-06-23T15:05:18.027Z,16.71
2018-06-23T15:08:39.645Z,16.87
2018-06-23T15:12:01.196Z,17.00
2018-06-23T15:15:05.612Z,17.42
2018-06-23T15:18:10.686Z,17.99
2018-06-23T15:21:15.441Z,17.82
2018-06-23T15:24:20.015Z,17.85
2018-06-23T15:27:25.250Z,18.11
2018-06-23T15:30:29.669Z,18.35
2018-06-23T15:33:34.915Z,18.49
2018-06-23T15:36:39.363Z,18.11
2018-06-23T15:39:43.690Z,18.10
2018-06-23T15:42:48.138Z,17.28
2018-06-23T15:45:52.616Z,17.25
2018-06-23T15:48:57.003Z,17.15
2018-06-23T15:52:01.670Z,16.90
2018-06-23T15:55:06.349Z,16.84
2018-06-23T15:58:11.330Z,16.82
2018-06-23T16:01:15.787Z,16.65
2018-06-23T16:04:20.502Z,16.70
2018-06-23T16:07:25.114Z,16.62
2018-06-23T16:10:29.533Z,16.47
2018-06-23T16:13:34.893Z,16.54
2018-06-23T16:16:39.350Z,16.54
2018-06-23T16:20:41.289Z,16.54
2018-06-23T16:23:50.011Z,16.63
2018-06-23T16:26:54.421Z,16.46
2018-06-23T16:29:58.850Z,16.50
2018-06-23T16:33:03.459Z,16.44
2018-06-23T16:36:07.906Z,16.50
2018-06-23T16:39:12.511Z,16.51
2018-06-23T16:42:16.816Z,16.50
2018-06-23T16:45:21.113Z,16.43
2018-06-23T16:48:25.533Z,16.40
2018-06-23T16:51:29.988Z,16.48
2018-06-23T16:54:34.588Z,16.48
2018-06-23T16:57:38.992Z,16.51
2018-06-23T17:00:43.473Z,16.48
2018-06-23T17:03:48.564Z,16.50
2018-06-23T17:06:53.106Z,16.54
2018-06-23T17:09:57.437Z,16.62
2018-06-23T17:13:02.749Z,16.64
2018-06-23T17:16:07.625Z,16.55
2018-06-23T17:19:12.078Z,16.44
2018-06-23T17:22:16.406Z,16.43
2018-06-23T17:25:22.376Z,16.40
2018-06-23T17:28:26.824Z,16.36
2018-06-23T17:31:31.294Z,16.27
2018-06-23T17:34:35.912Z,16.18
2018-06-23T17:37:40.606Z,16.05
2018-06-23T17:40:46.252Z,15.98
2018-06-23T17:43:50.601Z,15.90
2018-06-23T17:46:55.094Z,15.84
2018-06-23T17:50:00.170Z,15.81
2018-06-23T17:53:04.665Z,15.73
2018-06-23T17:56:09.162Z,15.65
2018-06-23T17:59:13.525Z,15.66
2018-06-23T18:02:18.369Z,15.60
2018-06-23T18:05:23.510Z,15.51
2018-06-23T18:08:27.963Z,15.42
2018-06-23T18:11:32.519Z,15.35
2018-06-23T18:14:38.176Z,15.09
2018-06-23T18:17:42.588Z,14.73
2018-06-23T18:20:47.096Z,14.66
2018-06-23T18:23:52.754Z,14.65
2018-06-23T18:26:57.134Z,14.42
2018-06-23T18:30:02.264Z,14.37
2018-06-23T18:33:06.864Z,14.39
2018-06-23T18:36:11.297Z,14.21
2018-06-23T18:39:15.848Z,14.25
2018-06-23T18:42:20.386Z,14.25
2018-06-23T18:45:24.788Z,14.31
2018-06-23T18:48:29.613Z,14.35
2018-06-23T18:51:34.086Z,14.33
2018-06-23T18:54:38.642Z,14.37
2018-06-23T18:57:43.076Z,14.37
2018-06-23T19:00:47.470Z,14.43
2018-06-23T19:03:51.833Z,14.47
2018-06-23T19:06:56.338Z,14.32
2018-06-23T19:10:00.707Z,14.30
2018-06-23T19:13:05.362Z,14.25
2018-06-23T19:16:09.843Z,14.19
2018-06-23T19:19:14.441Z,14.21
2018-06-23T19:22:18.728Z,14.19
2018-06-23T19:25:23.133Z,14.32
2018-06-23T19:28:27.583Z,14.42
2018-06-23T19:31:32.682Z,14.46
2018-06-23T19:34:37.044Z,14.44
2018-06-23T19:37:41.464Z,14.45
2018-06-23T19:40:46.166Z,14.49
2018-06-23T19:43:51.545Z,14.45
2018-06-23T19:46:56.000Z,14.40
2018-06-23T19:50:00.969Z,14.50
2018-06-23T19:53:05.377Z,14.43
2018-06-23T19:56:09.941Z,14.44
2018-06-23T19:59:14.520Z,14.49
2018-06-23T20:02:19.163Z,14.51
2018-06-23T20:05:23.468Z,14.49
2018-06-23T20:08:27.910Z,14.42
2018-06-23T20:11:32.245Z,14.49
2018-06-23T20:14:36.637Z,14.42
2018-06-23T20:18:11.414Z,14.43
2018-06-23T20:21:35.893Z,14.37
2018-06-23T20:24:40.572Z,14.24
2018-06-23T20:27:45.645Z,14.21
2018-06-23T20:30:50.301Z,14.29
2018-06-23T20:33:55.268Z,14.26
2018-06-23T20:36:59.988Z,14.27
2018-06-23T20:40:05.441Z,14.31
2018-06-23T20:43:09.956Z,14.15
2018-06-23T20:46:14.564Z,14.19
2018-06-23T20:49:19.372Z,14.17
2018-06-23T20:52:24.113Z,14.26
2018-06-23T20:55:28.861Z,14.05
2018-06-23T20:58:33.412Z,14.06
2018-06-23T21:01:38.032Z,14.16
2018-06-23T21:04:43.071Z,14.20
2018-06-23T21:07:49.741Z,14.16
2018-06-23T21:10:58.788Z,14.15
2018-06-23T21:14:03.788Z,14.17
2018-06-23T21:17:08.063Z,14.19
2018-06-23T21:20:12.338Z,14.05
2018-06-23T21:23:16.639Z,14.10
2018-06-23T21:26:21.160Z,14.08
2018-06-23T21:29:25.805Z,14.15
2018-06-23T21:32:30.106Z,14.17
2018-06-23T21:35:34.406Z,14.07
2018-06-23T21:38:39.337Z,14.04
2018-06-23T21:41:43.618Z,14.06
2018-06-23T21:44:47.986Z,14.10
2018-06-23T21:47:52.409Z,13.98
2018-06-23T21:50:57.089Z,13.86
2018-06-23T21:54:02.081Z,13.83
2018-06-23T21:57:06.893Z,13.85
2018-06-23T22:00:45.866Z,13.76
2018-06-23T22:03:50.273Z,13.69
2018-06-23T22:06:54.662Z,13.68
2018-06-23T22:09:59.314Z,13.63
2018-06-23T22:13:03.961Z,13.76
2018-06-23T22:16:08.245Z,13.74
2018-06-23T22:19:12.564Z,13.74
2018-06-23T22:22:16.989Z,13.80
2018-06-23T22:25:22.055Z,13.86
2018-06-23T22:28:26.426Z,13.71
2018-06-23T22:31:30.843Z,13.43
2018-06-23T22:34:35.853Z,13.35
2018-06-23T22:37:40.509Z,13.34
2018-06-23T22:40:44.806Z,13.24
2018-06-23T22:43:49.309Z,13.29
2018-06-23T22:46:54.224Z,13.14
2018-06-23T22:49:58.557Z,13.21
2018-06-23T22:53:02.844Z,13.29
2018-06-23T22:56:07.269Z,13.39
2018-06-23T22:59:11.544Z,13.34
2018-06-23T23:02:15.838Z,13.33
2018-06-23T23:05:20.709Z,13.36
2018-06-23T23:08:25.125Z,13.38
2018-06-23T23:11:29.393Z,13.46
2018-06-23T23:14:33.743Z,13.40
2018-06-23T23:17:38.289Z,13.45
2018-06-23T23:20:42.578Z,13.55
2018-06-23T23:23:46.865Z,13.52
2018-06-23T23:26:51.424Z,13.41
2018-06-23T23:29:56.025Z,13.47
2018-06-23T23:33:00.512Z,13.50
2018-06-23T23:36:05.995Z,13.43
2018-06-23T23:39:11.450Z,13.45
2018-06-23T23:42:15.748Z,13.44
2018-06-23T23:45:20.399Z,13.47
2018-06-23T23:48:24.443Z,13.39
2018-06-23T23:51:28.866Z,13.44
2018-06-23T23:54:33.174Z,13.58
2018-06-23T23:57:55.180Z,13.46
